Terminal Aerodrome Forecast
Issued by NWS

Home | Current Version | Previous Version | Text Only | Print | Product List | Glossary On
Versions: 1 2 3 4 5 6 7 8 9 10 11 12 13 14 15 16 17 18 19 20 21
000
FTUS41 KBOX 171909 AAA
TAFACK
TAF AMD
KACK 171909Z 1719/1818 05014G22KT P6SM BKN025
     FM172100 05012KT P6SM SCT025
     FM180500 07011KT P6SM -DZ OVC008=

USA.gov is the U.S. government's official web portal to all federal, state and local government web resources and services.